Monteview, ID

6:55 AM MDT on September 01, 2014 (GMT -0600)
ITD Sage Junction I-15/SH-33 ID US | Change Station
CLOSE
Current Station
Personal Weather Station
Location: Hamer, ID
Elevation: 4950 ft
Nearby Weather Stations

Elev 4950 ft 43.83 °N, 112.20 °W | Updated 40 minutes ago

Clear
Clear
43 °F
Feels Like 41 °F
N
4
Wind Variable Wind from East
Gusts 4.0 mph

Today
High -- | Low -- °F
--% Chance of Precip.
Yesterday
High -- | Low -- °F
Precip. -- in
6:53 AM 8:05 PM
Waxing Crescent, 40% visible
Pressure 29.97 in
Visibility 10.0 miles
Clouds Clear
Windchill 41 °F
Dew Point 38 °F
Humidity 83%
Rainfall -999.00 in
Snow Depth Not available.
UV 0 out of 12
Pollen 8.00 out of 12
PM2.5 Good
Flu Activity Not available.
METAR KIDA 011153Z AUTO 21009KT 10SM CLR 08/04 A3004 RMK AO2 SLP147 70010 T00780044 10150 20078 53011

More Conditions Fewer Conditions

Pressure 29.97 in
Visibility 10.0 miles
Clouds Clear
Windchill 41 °F
Dew Point 38 °F
Humidity 83%
Rainfall -999.00 in
Snow Depth Not available.
UV 0 out of 12
Pollen 8.00 out of 12
PM2.5 Good
Flu Activity Not available.
METAR KIDA 011153Z AUTO 21009KT 10SM CLR 08/04 A3004 RMK AO2 SLP147 70010 T00780044 10150 20078 53011

More Conditions Fewer Conditions

10-Day Weather Forecast

Almanac

Astronomy

Sep. 01, 2014 Rise Set
Actual Time 6:53 AM MDT 8:05 PM MDT
Civil Twilight 6:23 AM MDT 8:35 PM MDT
Nautical Twilight 5:48 AM MDT 9:10 PM MDT
Astronomical Twilight 5:10 AM MDT 9:48 PM MDT
Moon 1:56 PM MDT 11:56 PM MDT
Length of Visible Light 14h 11m
Length of Day
13h 12m
Tomorrow will be 2m 55s shorter.
Waxing Crescent, 40% of the Moon is Illuminated
Today
Waxing Crescent
Sep 2
First Quarter
Sep 8
Full
Sep 15
Last Quarter
Sep 24
New

Today's Extremes

State Highs State Lows

Community

WunderPhotos

Upload Photos

1,749,199 photos uploaded!

Nearby

Air Quality

  Air Quality AQ Index Pollutant
Yesterday Good
PM2.5
Current Good
PM2.5
Monday Good
PM2.5
Tuesday Good
PM2.5
Wednesday Good
PM2.5

Snow Depth

Station Depth Elevation
Crab Creek 0 in 6860 ft
Hilts Creek 0 in 8000 ft
Sheep Mountain 0 in 6570 ft
Island Park 0 in 6290 ft
Pine Creek Pass 0 in 6720 ft

Earthquake Activity

City Distance Mag. Time & Date
Driggs, Idaho 82 miles 3.8 2:09 PM MDT
2014-08-30
Minimum magnitude displayed is 2.5.

Coastal Water Temperatures

Place Temperature
No Stations Reporting

Nearby Weather Stations